Time;durP1;ratioP1;P1;durP2;ratioP2;P2;SDS_P1;SDS_P2;PMS_P1;PMS_P2;Temp;Humidity;BMP_temperature;BMP_pressure;BME280_temperature;BME280_humidity;BME280_pressure;Samples;Min_cycle;Max_cycle;Signal;HPM_P1;HPM_P2
2023/05/26 00:02:05;;;;;;;11.47;7.27;;;;;;;12.05;96.74;99296.97;5034181;28;20232;-63
2023/05/26 00:04:37;;;;;;;16.27;7.40;;;;;;;12.04;97.91;99290.09;5034622;28;20227;-63
2023/05/26 00:07:04;;;;;;;9.03;6.30;;;;;;;12.02;97.85;99294.63;5033212;28;20262;-63
2023/05/26 00:09:57;;;;;;;12.37;7.10;;;;;;;11.99;98.97;99283.59;5036740;28;20831;-63
2023/05/26 00:12:24;;;;;;;13.37;7.03;;;;;;;11.92;99.33;99289.38;5033090;28;20753;-63
2023/05/26 00:14:51;;;;;;;13.80;7.17;;;;;;;11.88;99.54;99293.25;5034927;28;20302;-63
2023/05/26 00:17:17;;;;;;;13.63;6.97;;;;;;;11.86;99.80;99289.16;5034389;28;20228;-63
2023/05/26 00:19:44;;;;;;;13.40;7.70;;;;;;;11.81;99.67;99289.56;5035731;28;20320;-63
2023/05/26 00:22:14;;;;;;;10.30;7.37;;;;;;;11.79;99.29;99286.25;5032034;28;20237;-63
2023/05/26 00:24:40;;;;;;;12.70;7.30;;;;;;;11.76;99.53;99286.53;5032979;28;20246;-63
2023/05/26 00:27:08;;;;;;;12.80;7.00;;;;;;;11.74;99.80;99294.53;5036470;28;20235;-63
2023/05/26 00:29:38;;;;;;;14.17;7.77;;;;;;;11.76;100.00;99292.63;5031868;28;20643;-63
2023/05/26 00:32:04;;;;;;;11.97;7.30;;;;;;;11.75;100.00;99290.97;5032162;28;20831;-63
2023/05/26 00:34:56;;;;;;;12.70;6.97;;;;;;;11.76;99.98;99282.16;5033488;28;20281;-63
2023/05/26 00:37:23;;;;;;;12.07;6.97;;;;;;;11.82;100.00;99280.75;5032223;28;20679;-63
2023/05/26 00:39:49;;;;;;;13.97;6.80;;;;;;;11.76;99.91;99276.09;5037366;28;20227;-63
2023/05/26 00:42:18;;;;;;;9.87;6.33;;;;;;;11.74;99.56;99272.78;5022356;28;20225;-63
2023/05/26 00:44:45;;;;;;;10.00;6.77;;;;;;;11.70;100.00;99281.88;5035611;28;20312;-62
2023/05/26 00:47:11;;;;;;;14.83;7.77;;;;;;;11.69;100.00;99285.47;5032709;28;20338;-62
2023/05/26 00:49:39;;;;;;;10.97;7.37;;;;;;;11.69;100.00;99280.22;5041360;28;20314;-62
2023/05/26 00:52:06;;;;;;;12.27;6.93;;;;;;;11.62;100.00;99280.81;5030055;28;20238;-62
2023/05/26 00:54:38;;;;;;;11.77;6.90;;;;;;;11.64;100.00;99268.44;5036506;28;20314;-62
2023/05/26 00:57:06;;;;;;;11.33;6.77;;;;;;;11.61;100.00;99273.09;5033931;28;20227;-62
2023/05/26 00:59:39;;;;;;;12.97;6.57;;;;;;;11.61;100.00;99262.66;5054576;28;20231;-62
2023/05/26 01:02:06;;;;;;;11.90;6.77;;;;;;;11.57;100.00;99269.97;5028495;28;20242;-62
2023/05/26 01:04:40;;;;;;;8.43;6.00;;;;;;;11.55;100.00;99271.91;5039005;28;20230;-62
2023/05/26 01:07:06;;;;;;;13.10;6.83;;;;;;;11.54;100.00;99266.78;5033525;28;20232;-62
2023/05/26 01:09:38;;;;;;;11.10;6.17;;;;;;;11.57;100.00;99267.34;5033917;28;20286;-62
2023/05/26 01:12:08;;;;;;;10.73;6.70;;;;;;;11.54;100.00;99261.56;5036823;28;20294;-62
2023/05/26 01:14:44;;;;;;;14.17;6.63;;;;;;;11.55;100.00;99252.75;5033886;28;20231;-62
2023/05/26 01:17:17;;;;;;;11.60;6.77;;;;;;;11.57;100.00;99251.66;5034146;28;20612;-62
2023/05/26 01:20:01;;;;;;;13.27;6.33;;;;;;;11.49;99.79;99244.50;5034556;28;20227;-62
2023/05/26 01:22:57;;;;;;;15.77;6.37;;;;;;;11.48;99.60;99253.31;5032779;28;20224;-62
2023/05/26 01:25:31;;;;;;;10.80;5.97;;;;;;;11.48;99.80;99250.69;5038825;28;20239;-63
2023/05/26 01:28:06;;;;;;;13.30;6.73;;;;;;;11.48;99.97;99242.88;5034465;28;20754;-63
2023/05/26 01:30:33;;;;;;;10.40;6.67;;;;;;;11.47;100.00;99249.06;5020119;28;20576;-63
2023/05/26 01:32:59;;;;;;;11.97;6.77;;;;;;;11.42;100.00;99258.31;5025432;28;20602;-63
2023/05/26 01:35:26;;;;;;;11.90;6.70;;;;;;;11.39;100.00;99256.78;5033085;28;20231;-63
2023/05/26 01:37:56;;;;;;;16.60;6.77;;;;;;;11.31;100.00;99248.81;5034938;28;20227;-63
2023/05/26 01:40:23;;;;;;;12.70;6.30;;;;;;;11.26;100.00;99251.84;5031460;28;20646;-63
2023/05/26 01:42:56;;;;;;;15.03;7.13;;;;;;;11.27;100.00;99250.88;5040618;28;20224;-63
2023/05/26 01:45:27;;;;;;;14.70;7.30;;;;;;;11.23;100.00;99246.91;5038145;28;20232;-63
2023/05/26 01:47:58;;;;;;;11.00;6.57;;;;;;;11.25;100.00;99242.38;5032598;28;20217;-63
2023/05/26 01:50:35;;;;;;;11.27;6.67;;;;;;;11.28;99.56;99247.31;5032620;28;20307;-63
2023/05/26 01:53:07;;;;;;;11.13;6.57;;;;;;;11.31;99.86;99241.81;5032130;28;20219;-63
2023/05/26 01:55:38;;;;;;;11.70;6.60;;;;;;;11.40;100.00;99253.19;5032223;28;20312;-63
2023/05/26 01:58:06;;;;;;;12.23;6.40;;;;;;;11.46;100.00;99246.59;5034439;28;20229;-63
2023/05/26 02:00:45;;;;;;;10.43;5.73;;;;;;;11.49;99.53;99239.28;5038066;28;20248;-63
2023/05/26 02:03:12;;;;;;;11.07;6.43;;;;;;;11.50;98.89;99251.38;5033560;28;20253;-63
2023/05/26 02:05:40;;;;;;;10.17;6.47;;;;;;;11.50;98.26;99240.13;5037239;28;20224;-63
2023/05/26 02:08:10;;;;;;;11.13;6.20;;;;;;;11.50;98.43;99240.13;5050014;28;20225;-63
2023/05/26 02:10:37;;;;;;;11.00;6.27;;;;;;;11.52;97.76;99238.19;5042624;28;20227;-63
2023/05/26 02:13:04;;;;;;;9.40;6.60;;;;;;;11.58;98.03;99240.25;5041870;28;20321;-63
2023/05/26 02:15:31;;;;;;;14.33;7.10;;;;;;;11.65;98.59;99243.09;5041270;28;20310;-63
2023/05/26 02:18:00;;;;;;;14.77;6.50;;;;;;;11.89;93.40;99244.41;5038841;28;20692;-63
2023/05/26 02:20:27;;;;;;;12.33;6.33;;;;;;;11.87;94.81;99236.69;5035044;28;20734;-63
2023/05/26 02:22:53;;;;;;;10.03;6.17;;;;;;;11.90;95.80;99251.28;5040747;28;20300;-63
2023/05/26 02:25:20;;;;;;;11.07;6.30;;;;;;;11.92;95.57;99242.31;5032465;28;20295;-63
2023/05/26 02:27:47;;;;;;;11.07;5.90;;;;;;;11.93;95.36;99241.34;5038412;28;20766;-63
2023/05/26 02:30:13;;;;;;;10.00;6.10;;;;;;;11.94;95.97;99239.56;5035802;28;20232;-63
2023/05/26 02:32:40;;;;;;;11.47;6.43;;;;;;;11.97;95.47;99234.03;5052922;28;20229;-63
2023/05/26 02:35:09;;;;;;;11.07;6.73;;;;;;;11.95;94.63;99230.75;5036355;28;20229;-63
2023/05/26 02:37:36;;;;;;;14.47;6.87;;;;;;;12.23;91.26;99230.75;5043126;28;20326;-63
2023/05/26 02:40:04;;;;;;;9.20;6.20;;;;;;;12.44;88.55;99232.28;5032229;28;20225;-63
2023/05/26 02:42:31;;;;;;;10.67;6.40;;;;;;;12.40;89.35;99237.00;5042023;28;20314;-63
2023/05/26 02:44:57;;;;;;;10.97;6.10;;;;;;;12.38;91.31;99233.69;5037386;28;21130;-63
2023/05/26 02:47:24;;;;;;;13.17;6.47;;;;;;;12.27;91.27;99237.34;5035035;28;20613;-63
2023/05/26 02:49:52;;;;;;;13.53;6.50;;;;;;;12.21;91.15;99232.69;5036845;28;20252;-63
2023/05/26 02:52:22;;;;;;;9.80;6.00;;;;;;;12.17;92.26;99234.78;5034879;28;20219;-63
2023/05/26 02:54:48;;;;;;;10.97;6.43;;;;;;;12.18;91.96;99236.44;5040194;28;20220;-63
2023/05/26 02:57:15;;;;;;;10.33;5.83;;;;;;;12.22;91.56;99229.09;5034594;28;20255;-63
2023/05/26 02:59:42;;;;;;;8.67;5.93;;;;;;;12.24;92.47;99238.47;5035091;28;20235;-63
2023/05/26 03:04:50;;;;;;;11.20;6.30;;;;;;;12.20;93.08;99241.50;5235981;23;20233;-63
2023/05/26 03:07:16;;;;;;;11.83;6.63;;;;;;;12.26;92.63;99240.91;4960473;28;20230;-63
2023/05/26 03:09:45;;;;;;;11.77;6.47;;;;;;;12.33;91.44;99246.41;4972093;28;20242;-63
2023/05/26 03:12:15;;;;;;;12.17;6.50;;;;;;;12.36;91.88;99246.13;4961293;28;20256;-63
2023/05/26 03:14:43;;;;;;;15.90;7.07;;;;;;;12.35;91.54;99250.50;4949543;28;20242;-63
2023/05/26 03:17:10;;;;;;;12.90;6.27;;;;;;;12.34;92.15;99243.63;4940323;28;20268;-63
2023/05/26 03:19:38;;;;;;;12.20;7.27;;;;;;;12.37;92.69;99248.56;4943387;28;20231;-63
2023/05/26 03:22:05;;;;;;;10.17;6.37;;;;;;;12.37;92.17;99245.97;4942973;28;20234;-63
2023/05/26 03:24:38;;;;;;;13.63;7.90;;;;;;;12.42;91.87;99245.53;4942018;28;20245;-63
2023/05/26 03:27:06;;;;;;;14.73;7.37;;;;;;;12.54;89.71;99240.88;4942371;28;20230;-63
2023/05/26 03:29:38;;;;;;;12.43;7.17;;;;;;;12.56;90.00;99252.03;4945311;28;20322;-63
2023/05/26 03:32:06;;;;;;;15.03;8.17;;;;;;;12.62;89.81;99234.94;5174021;23;20490;-63
2023/05/26 03:34:39;;;;;;;11.83;7.20;;;;;;;12.59;90.58;99243.88;5001800;28;20241;-63
2023/05/26 03:37:06;;;;;;;12.43;6.90;;;;;;;12.53;91.80;99242.69;5010592;28;20235;-63
2023/05/26 03:39:38;;;;;;;12.80;7.50;;;;;;;12.55;90.19;99247.78;5011515;28;20310;-63
2023/05/26 03:42:07;;;;;;;11.17;7.00;;;;;;;12.58;90.46;99246.66;4988663;28;20258;-63
2023/05/26 03:44:41;;;;;;;19.37;7.60;;;;;;;12.62;90.06;99251.44;4983526;28;20288;-63
2023/05/26 03:47:09;;;;;;;13.90;7.60;;;;;;;12.58;90.59;99259.78;4972406;28;20262;-63
2023/05/26 03:49:38;;;;;;;17.10;7.27;;;;;;;12.55;91.84;99261.72;4977962;28;20582;-63
2023/05/26 03:52:05;;;;;;;15.57;8.13;;;;;;;12.54;92.26;99260.06;4980126;28;20250;-63
2023/05/26 03:54:38;;;;;;;12.47;7.87;;;;;;;12.51;92.81;99260.34;4995810;28;20236;-63
2023/05/26 03:57:07;;;;;;;13.00;7.30;;;;;;;12.49;95.02;99258.84;4971441;28;20718;-63
2023/05/26 03:59:38;;;;;;;13.37;7.17;;;;;;;12.48;94.23;99263.28;4979499;28;20234;-63
2023/05/26 04:02:05;;;;;;;13.73;7.20;;;;;;;12.50;94.53;99266.56;4972899;28;20246;-63
2023/05/26 04:04:38;;;;;;;13.83;6.63;;;;;;;12.47;95.46;99256.38;4997245;28;20270;-63
2023/05/26 04:07:05;;;;;;;12.77;7.50;;;;;;;12.50;95.47;99258.72;4973414;28;20252;-63
2023/05/26 04:09:37;;;;;;;11.97;6.93;;;;;;;12.47;96.20;99260.78;4982591;28;20677;-63
2023/05/26 04:12:05;;;;;;;16.70;8.50;;;;;;;12.50;95.68;99256.09;4971236;28;20234;-63
2023/05/26 04:14:39;;;;;;;10.80;6.60;;;;;;;12.52;94.80;99255.94;4982365;28;20230;-64
2023/05/26 04:17:06;;;;;;;11.37;7.90;;;;;;;12.55;94.89;99256.47;4975856;28;20301;-63
2023/05/26 04:19:38;;;;;;;14.90;7.60;;;;;;;12.59;94.35;99253.56;4979277;28;20314;-63
2023/05/26 04:22:05;;;;;;;12.93;7.27;;;;;;;12.61;94.50;99257.66;4973806;28;20230;-63
2023/05/26 04:24:38;;;;;;;15.60;7.20;;;;;;;12.59;95.49;99251.75;4976261;28;20221;-63
2023/05/26 04:27:07;;;;;;;11.07;7.77;;;;;;;12.60;95.74;99252.59;4970295;28;20231;-63
2023/05/26 04:30:00;;;;;;;12.17;7.17;;;;;;;12.61;96.59;99256.84;4964432;28;20576;-63
2023/05/26 04:32:38;;;;;;;12.90;7.40;;;;;;;12.60;96.02;99261.25;4956205;28;20236;-63
2023/05/26 04:35:19;;;;;;;10.80;7.10;;;;;;;12.60;96.22;99261.25;4954598;28;20248;-63
2023/05/26 04:37:50;;;;;;;10.33;7.83;;;;;;;12.57;95.94;99258.13;4955721;28;20242;-63
2023/05/26 04:40:18;;;;;;;12.10;6.97;;;;;;;12.53;96.52;99247.94;4974309;28;20227;-63
2023/05/26 04:42:48;;;;;;;13.43;7.43;;;;;;;12.49;96.96;99251.00;4957635;28;20301;-63
2023/05/26 04:45:16;;;;;;;10.90;6.67;;;;;;;12.45;97.23;99258.31;4954713;28;20227;-63
2023/05/26 04:47:47;;;;;;;15.40;7.90;;;;;;;12.32;98.22;99261.28;4962848;28;20234;-63
2023/05/26 04:50:16;;;;;;;11.93;7.70;;;;;;;12.28;97.67;99256.50;4953248;28;21116;-63
2023/05/26 04:52:43;;;;;;;13.33;6.90;;;;;;;12.21;98.30;99259.69;4962051;28;20317;-63
2023/05/26 04:55:10;;;;;;;9.20;6.80;;;;;;;12.22;98.37;99258.72;4954114;28;20231;-63
2023/05/26 04:57:36;;;;;;;11.50;7.20;;;;;;;12.18;98.75;99264.41;4954877;28;20335;-63
2023/05/26 05:00:06;;;;;;;12.10;7.27;;;;;;;12.19;99.11;99271.28;4954059;28;20242;-63
2023/05/26 05:02:35;;;;;;;10.33;6.93;;;;;;;12.12;99.88;99273.66;4976915;28;20258;-63
2023/05/26 05:05:11;;;;;;;12.00;6.90;;;;;;;12.03;100.00;99272.72;4970071;28;20329;-63
2023/05/26 05:07:38;;;;;;;12.17;7.20;;;;;;;12.08;100.00;99278.38;4977131;28;20238;-63
2023/05/26 05:10:06;;;;;;;14.07;7.97;;;;;;;12.12;99.45;99281.50;4957022;28;20240;-63
2023/05/26 05:12:34;;;;;;;10.47;7.00;;;;;;;12.14;100.00;99284.00;4959630;28;20744;-63
2023/05/26 05:15:03;;;;;;;13.47;7.00;;;;;;;12.16;100.00;99293.31;4949932;28;20579;-63
2023/05/26 05:17:31;;;;;;;14.17;7.50;;;;;;;12.19;100.00;99282.56;4952214;28;20571;-63
2023/05/26 05:19:59;;;;;;;13.20;7.60;;;;;;;12.23;100.00;99281.31;4961485;28;20642;-63
2023/05/26 05:22:25;;;;;;;12.63;7.77;;;;;;;12.22;100.00;99291.91;4957868;28;20238;-63
2023/05/26 05:24:52;;;;;;;14.33;7.63;;;;;;;12.20;100.00;99292.06;4953335;28;20239;-63
2023/05/26 05:27:19;;;;;;;13.20;8.17;;;;;;;12.30;99.64;99292.00;4954306;28;20247;-63
2023/05/26 05:29:46;;;;;;;14.37;8.40;;;;;;;12.32;99.27;99297.13;4973125;28;20239;-63
2023/05/26 05:32:12;;;;;;;15.20;9.00;;;;;;;12.31;98.61;99291.03;4955823;28;20694;-63
2023/05/26 05:34:44;;;;;;;17.07;8.57;;;;;;;12.40;99.09;99300.63;4972991;28;20686;-63
2023/05/26 05:37:12;;;;;;;14.57;8.67;;;;;;;12.36;98.51;99303.72;4975672;28;20574;-63
2023/05/26 05:39:39;;;;;;;13.33;8.37;;;;;;;12.39;99.11;99308.66;4978731;28;20236;-63
2023/05/26 05:42:06;;;;;;;11.40;8.47;;;;;;;12.50;98.41;99312.84;4980599;28;20265;-63
2023/05/26 05:44:38;;;;;;;14.83;8.90;;;;;;;12.58;97.06;99314.75;4979233;28;20238;-63
2023/05/26 05:47:04;;;;;;;13.90;8.63;;;;;;;12.70;96.34;99310.97;4976781;28;20239;-63
2023/05/26 05:49:56;;;;;;;15.77;8.33;;;;;;;12.92;95.97;99319.34;4978752;28;20273;-63
2023/05/26 05:52:24;;;;;;;16.40;8.47;;;;;;;13.14;94.84;99318.91;4976683;28;20932;-63
2023/05/26 05:54:52;;;;;;;15.00;8.60;;;;;;;13.10;95.18;99320.19;4979256;28;20238;-63
2023/05/26 05:57:18;;;;;;;16.23;8.63;;;;;;;13.26;93.92;99327.34;4979200;28;20234;-63
2023/05/26 05:59:45;;;;;;;15.37;8.00;;;;;;;13.36;93.42;99327.28;4978062;28;20890;-64
2023/05/26 06:02:12;;;;;;;13.60;7.90;;;;;;;13.51;93.38;99335.47;4982901;28;20246;-64
2023/05/26 06:04:38;;;;;;;14.63;8.43;;;;;;;13.64;92.51;99335.06;4986530;28;20634;-64
2023/05/26 06:07:05;;;;;;;14.07;8.27;;;;;;;13.77;91.35;99337.28;4986008;28;20234;-64
2023/05/26 06:09:39;;;;;;;12.50;8.60;;;;;;;13.94;89.79;99346.06;4967797;28;20235;-64
2023/05/26 06:12:06;;;;;;;12.70;7.77;;;;;;;14.09;89.49;99348.97;4979465;28;20694;-63
2023/05/26 06:14:39;;;;;;;18.07;9.07;;;;;;;14.13;88.20;99350.31;4972784;28;20236;-63
2023/05/26 06:17:06;;;;;;;11.50;7.47;;;;;;;14.27;86.52;99350.69;4995251;28;20236;-63
2023/05/26 06:19:38;;;;;;;16.20;9.13;;;;;;;14.47;88.97;99353.91;4976648;28;20267;-63
2023/05/26 06:22:04;;;;;;;11.77;8.03;;;;;;;14.70;87.74;99350.72;4984325;28;20229;-63
2023/05/26 06:24:57;;;;;;;16.13;8.30;;;;;;;14.82;87.34;99362.59;4968199;28;20314;-63
2023/05/26 06:27:25;;;;;;;16.80;8.83;;;;;;;14.99;87.23;99352.09;4976685;28;20236;-63
2023/05/26 06:29:52;;;;;;;11.57;7.80;;;;;;;14.93;85.30;99350.94;4978539;28;20228;-63
2023/05/26 06:32:20;;;;;;;17.50;8.27;;;;;;;15.12;86.25;99356.91;4972944;28;20685;-63
2023/05/26 06:34:48;;;;;;;16.30;8.17;;;;;;;15.30;85.35;99354.09;4978423;28;20293;-63
2023/05/26 06:37:14;;;;;;;13.13;8.13;;;;;;;15.37;84.87;99347.22;4982605;28;20228;-63
2023/05/26 06:39:41;;;;;;;12.27;7.80;;;;;;;15.48;80.01;99353.94;4976871;28;20239;-63
2023/05/26 06:42:13;;;;;;;11.23;7.70;;;;;;;15.63;80.86;99354.91;4981684;28;20244;-63
2023/05/26 06:44:40;;;;;;;13.93;8.70;;;;;;;15.77;77.70;99352.59;4984019;28;20232;-63
2023/05/26 06:47:09;;;;;;;19.93;9.53;;;;;;;15.41;77.93;99361.69;4977148;28;20227;-63
2023/05/26 06:49:43;;;;;;;13.57;8.60;;;;;;;15.53;78.06;99356.91;4982101;28;20235;-63
2023/05/26 06:52:12;;;;;;;15.47;8.03;;;;;;;15.71;77.87;99356.75;4976108;28;20319;-64
2023/05/26 06:54:39;;;;;;;16.00;8.37;;;;;;;15.86;76.58;99366.59;4981385;28;20241;-63
2023/05/26 06:57:06;;;;;;;13.73;8.60;;;;;;;15.76;76.71;99367.59;4979210;28;20231;-63
2023/05/26 06:59:39;;;;;;;15.43;8.10;;;;;;;15.87;77.35;99363.00;4974852;28;20582;-63
2023/05/26 07:02:06;;;;;;;12.13;7.97;;;;;;;16.08;76.69;99363.28;4984916;28;20694;-63
2023/05/26 07:04:38;;;;;;;15.43;7.97;;;;;;;16.19;75.23;99363.91;4976301;28;20238;-63
2023/05/26 07:07:04;;;;;;;16.20;8.40;;;;;;;16.33;75.28;99363.19;4984146;28;20239;-63
2023/05/26 07:09:56;;;;;;;12.17;7.60;;;;;;;16.55;74.00;99365.25;4978402;28;20232;-63
2023/05/26 07:12:23;;;;;;;11.73;7.40;;;;;;;16.51;73.18;99365.59;4982481;28;20233;-63
2023/05/26 07:14:54;;;;;;;10.63;7.73;;;;;;;16.70;74.74;99376.72;4985099;28;20348;-63
2023/05/26 07:17:22;;;;;;;17.80;8.50;;;;;;;16.73;74.20;99375.56;4973957;28;20316;-63
2023/05/26 07:19:49;;;;;;;10.03;7.07;;;;;;;16.83;72.74;99370.91;4979320;28;20241;-63
2023/05/26 07:22:16;;;;;;;11.40;8.17;;;;;;;16.80;72.02;99377.31;4972758;28;20224;-63
2023/05/26 07:25:05;;;;;;;16.80;7.73;;;;;;;16.74;71.30;99378.03;4984495;28;20257;-63
2023/05/26 07:27:38;;;;;;;13.17;8.00;;;;;;;16.72;70.44;99380.00;4997211;28;20251;-63
2023/05/26 07:30:08;;;;;;;16.87;7.70;;;;;;;16.56;72.16;99370.38;4975216;28;20230;-63
2023/05/26 07:32:41;;;;;;;14.93;7.90;;;;;;;16.60;73.71;99370.84;4972678;28;20246;-63
2023/05/26 07:35:09;;;;;;;16.47;8.03;;;;;;;16.68;72.75;99373.44;4976809;28;20325;-63
2023/05/26 07:37:35;;;;;;;14.60;7.53;;;;;;;16.91;71.09;99378.78;4972085;28;20236;-63
2023/05/26 07:40:02;;;;;;;18.37;7.90;;;;;;;16.90;70.62;99384.19;4978278;28;20247;-63
2023/05/26 07:42:29;;;;;;;13.37;8.60;;;;;;;16.83;71.20;99379.63;4974928;28;20662;-63
2023/05/26 07:44:56;;;;;;;16.77;9.07;;;;;;;16.68;72.71;99376.06;4977102;28;20233;-63
2023/05/26 07:47:24;;;;;;;15.37;8.90;;;;;;;16.67;72.84;99374.44;4972986;28;20237;-63
2023/05/26 07:49:51;;;;;;;16.10;8.70;;;;;;;16.70;73.02;99378.53;4978186;28;20234;-63
2023/05/26 07:52:17;;;;;;;14.80;8.10;;;;;;;17.00;72.37;99379.56;4976793;28;20232;-63
2023/05/26 07:54:44;;;;;;;13.83;7.87;;;;;;;17.05;70.20;99386.94;4976768;28;20229;-63
2023/05/26 07:57:11;;;;;;;15.03;7.77;;;;;;;17.09;70.74;99383.78;4974789;28;20245;-63
2023/05/26 07:59:38;;;;;;;13.30;8.13;;;;;;;17.29;69.82;99385.13;4974905;28;20229;-63
2023/05/26 08:02:04;;;;;;;12.60;7.63;;;;;;;17.35;69.97;99387.06;4978829;28;20225;-63
2023/05/26 08:04:57;;;;;;;12.23;8.00;;;;;;;17.11;71.70;99391.53;4969307;28;20232;-63
2023/05/26 08:07:24;;;;;;;12.90;8.43;;;;;;;17.16;70.90;99391.00;4974875;28;20246;-63
2023/05/26 08:09:52;;;;;;;12.10;7.83;;;;;;;17.30;70.95;99390.25;4977456;28;20236;-63
2023/05/26 08:12:18;;;;;;;16.77;8.60;;;;;;;17.34;68.56;99386.28;4976929;28;20230;-63
2023/05/26 08:14:45;;;;;;;14.13;7.70;;;;;;;17.24;71.88;99388.31;4981539;28;20296;-63
2023/05/26 08:17:11;;;;;;;14.63;7.97;;;;;;;17.46;71.34;99385.88;4975375;28;20569;-63
2023/05/26 08:19:38;;;;;;;13.97;7.67;;;;;;;17.62;68.30;99388.34;4982224;28;20230;-63
2023/05/26 08:22:06;;;;;;;13.47;7.80;;;;;;;17.61;70.39;99383.25;4979865;28;20241;-63
2023/05/26 08:24:38;;;;;;;14.97;7.93;;;;;;;17.73;67.82;99387.13;4975356;28;20252;-63
2023/05/26 08:27:05;;;;;;;13.43;7.83;;;;;;;17.73;70.56;99391.56;4981240;28;20227;-63
2023/05/26 08:29:38;;;;;;;16.30;8.40;;;;;;;17.77;69.59;99392.84;4974974;28;20229;-63
2023/05/26 08:32:05;;;;;;;13.70;8.50;;;;;;;17.76;70.42;99389.41;4978187;28;20313;-63
2023/05/26 08:34:38;;;;;;;14.13;7.93;;;;;;;17.69;69.28;99389.28;4973037;28;20331;-63
2023/05/26 08:37:06;;;;;;;15.07;8.50;;;;;;;17.65;69.71;99382.72;4977725;28;20229;-63
2023/05/26 08:39:38;;;;;;;17.00;8.10;;;;;;;17.87;68.52;99385.50;4974167;28;20221;-63
2023/05/26 08:42:07;;;;;;;16.60;7.33;;;;;;;17.98;70.22;99387.69;4979718;28;20246;-63
2023/05/26 08:44:38;;;;;;;15.23;7.63;;;;;;;18.00;69.16;99377.00;4973808;28;20755;-63
2023/05/26 08:47:05;;;;;;;15.63;8.13;;;;;;;18.28;68.77;99382.47;4975867;28;20246;-63
2023/05/26 08:50:01;;;;;;;15.03;7.90;;;;;;;18.48;68.54;99386.38;4974844;28;20692;-63
2023/05/26 08:52:29;;;;;;;10.37;7.20;;;;;;;18.67;65.93;99379.69;4974191;28;20239;-63
2023/05/26 08:54:56;;;;;;;15.40;7.47;;;;;;;18.66;68.41;99378.88;4980158;28;20238;-63
2023/05/26 08:57:24;;;;;;;13.97;7.70;;;;;;;18.73;66.11;99376.28;4972648;28;20230;-63
2023/05/26 08:59:52;;;;;;;12.77;7.07;;;;;;;18.91;65.80;99378.56;4979782;28;20253;-63
2023/05/26 09:02:19;;;;;;;14.67;7.50;;;;;;;18.81;64.69;99378.03;4971058;28;20325;-63
2023/05/26 09:04:46;;;;;;;14.43;7.57;;;;;;;18.96;63.32;99378.84;4975419;28;20245;-63
2023/05/26 09:07:13;;;;;;;17.60;7.37;;;;;;;18.98;66.07;99370.69;4975993;28;20238;-63
2023/05/26 09:09:41;;;;;;;16.00;7.57;;;;;;;19.09;66.63;99362.28;4977473;28;20245;-63
2023/05/26 09:12:11;;;;;;;13.90;7.47;;;;;;;19.37;62.96;99368.63;4977238;28;20288;-63
2023/05/26 09:14:38;;;;;;;15.73;6.90;;;;;;;19.51;65.04;99366.94;4976335;28;20690;-63
2023/05/26 09:17:05;;;;;;;15.03;7.17;;;;;;;19.60;62.91;99363.13;4977347;28;20234;-63
2023/05/26 09:19:38;;;;;;;11.93;6.53;;;;;;;19.78;58.43;99365.31;4975516;28;20235;-63
2023/05/26 09:22:07;;;;;;;11.77;6.53;;;;;;;19.93;59.16;99367.06;4976747;28;20634;-63
2023/05/26 09:24:47;;;;;;;12.07;5.80;;;;;;;20.14;56.36;99358.22;4975444;28;20285;-63
2023/05/26 09:27:19;;;;;;;7.93;5.57;;;;;;;20.21;56.40;99359.06;4974112;28;20236;-63
2023/05/26 09:29:50;;;;;;;11.03;5.40;;;;;;;20.39;58.22;99366.50;4975848;28;20721;-63
2023/05/26 09:32:17;;;;;;;10.57;5.73;;;;;;;20.45;54.49;99367.56;4973080;28;20247;-63
2023/05/26 09:34:44;;;;;;;11.47;6.17;;;;;;;20.45;55.54;99365.72;4976313;28;20231;-63
2023/05/26 09:37:11;;;;;;;10.33;6.00;;;;;;;20.42;55.24;99357.34;4977337;28;20240;-63
2023/05/26 09:39:38;;;;;;;12.53;6.17;;;;;;;20.32;56.24;99370.94;4975182;28;20232;-63
2023/05/26 09:42:07;;;;;;;14.23;6.60;;;;;;;20.43;55.20;99365.09;4979049;28;20237;-63
2023/05/26 09:44:39;;;;;;;9.33;5.87;;;;;;;20.68;57.65;99364.56;4976557;28;20941;-63
2023/05/26 09:47:07;;;;;;;8.47;6.03;;;;;;;20.67;55.63;99370.91;4975165;28;20236;-63
2023/05/26 09:49:38;;;;;;;14.07;6.90;;;;;;;20.36;55.22;99361.59;4970783;28;20231;-63
2023/05/26 09:52:05;;;;;;;12.17;6.37;;;;;;;20.48;54.74;99369.81;4979348;28;20297;-63
2023/05/26 09:54:37;;;;;;;12.47;6.67;;;;;;;20.57;55.72;99370.44;4975814;28;20241;-63
2023/05/26 09:57:10;;;;;;;11.13;6.23;;;;;;;20.65;55.11;99372.94;4977578;28;20243;-63
2023/05/26 09:59:40;;;;;;;11.23;6.30;;;;;;;20.79;54.27;99366.69;4971206;28;20239;-63
2023/05/26 10:02:18;;;;;;;11.17;6.73;;;;;;;20.89;55.46;99370.81;4927132;28;20236;-63
2023/05/26 10:04:47;;;;;;;10.03;6.00;;;;;;;20.84;55.16;99365.28;4973443;28;20235;-63
2023/05/26 10:07:13;;;;;;;11.53;6.07;;;;;;;20.91;55.73;99368.75;4980185;28;20776;-63
2023/05/26 10:09:41;;;;;;;10.23;6.40;;;;;;;21.18;54.57;99368.81;4975341;28;20726;-63
2023/05/26 10:12:12;;;;;;;12.43;6.60;;;;;;;20.72;55.07;99363.16;4976870;28;20291;-63
2023/05/26 10:14:39;;;;;;;13.50;6.53;;;;;;;20.83;53.34;99356.47;4976483;28;20294;-63
2023/05/26 10:17:07;;;;;;;11.67;7.07;;;;;;;20.84;53.04;99362.63;4976511;28;20224;-63
2023/05/26 10:19:38;;;;;;;10.33;5.80;;;;;;;20.99;53.29;99357.97;4978980;28;20306;-63
2023/05/26 10:22:11;;;;;;;11.97;6.50;;;;;;;21.19;53.02;99365.16;4983912;28;20734;-63
2023/05/26 10:24:41;;;;;;;11.13;6.43;;;;;;;21.34;52.73;99362.28;4971994;28;20700;-63
2023/05/26 10:27:17;;;;;;;12.20;6.40;;;;;;;21.18;52.94;99369.63;4963178;28;20244;-63
2023/05/26 10:29:47;;;;;;;9.83;6.27;;;;;;;21.13;52.49;99369.41;4956661;28;20259;-63
2023/05/26 10:32:42;;;;;;;13.40;7.37;;;;;;;20.91;52.89;99366.13;4971938;28;20250;-63
2023/05/26 10:35:20;;;;;;;11.47;6.80;;;;;;;20.84;54.88;99367.94;4978448;28;20243;-63
2023/05/26 10:37:49;;;;;;;18.23;7.37;;;;;;;21.07;53.56;99370.22;4974338;28;20236;-63
2023/05/26 10:40:27;;;;;;;11.57;6.87;;;;;;;21.07;53.14;99362.25;4976370;28;20239;-63
2023/05/26 10:42:59;;;;;;;12.77;6.80;;;;;;;21.26;54.99;99365.94;4981649;28;20269;-63
2023/05/26 10:45:26;;;;;;;13.63;6.87;;;;;;;21.08;53.62;99359.41;4977476;28;20223;-63
2023/05/26 10:47:58;;;;;;;13.43;6.77;;;;;;;21.16;53.18;99363.69;4979063;28;20241;-63
2023/05/26 10:50:25;;;;;;;12.80;7.10;;;;;;;21.16;53.69;99354.94;4976206;28;20259;-63
2023/05/26 10:52:52;;;;;;;13.10;6.83;;;;;;;21.11;54.63;99352.06;4978979;28;20275;-63
2023/05/26 10:55:31;;;;;;;12.43;6.97;;;;;;;20.90;53.54;99361.81;4976770;28;21157;-63
2023/05/26 10:58:32;;;;;;;13.00;5.77;;;;;;;20.75;53.85;99360.13;4981441;28;20699;-63
2023/05/26 11:01:00;;;;;;;13.30;6.63;;;;;;;20.82;53.66;99351.38;4976972;28;20235;-63
2023/05/26 11:03:35;;;;;;;14.27;7.33;;;;;;;20.78;53.99;99349.13;4967893;28;20772;-63
2023/05/26 11:06:02;;;;;;;13.20;7.90;;;;;;;21.03;54.84;99361.03;4972353;28;20731;-63
2023/05/26 11:08:36;;;;;;;11.90;7.07;;;;;;;21.00;51.92;99351.63;4966343;28;20221;-63
2023/05/26 11:11:04;;;;;;;14.87;7.17;;;;;;;20.97;52.50;99345.91;4975657;28;20235;-63
2023/05/26 11:13:46;;;;;;;11.63;7.27;;;;;;;21.13;53.25;99350.03;4977167;28;20240;-63
2023/05/26 11:16:21;;;;;;;11.57;6.67;;;;;;;21.07;52.08;99341.84;4974838;28;20229;-64
2023/05/26 11:18:50;;;;;;;17.90;7.90;;;;;;;21.10;52.73;99345.94;4977542;28;20230;-64
2023/05/26 11:21:17;;;;;;;12.53;7.20;;;;;;;21.26;51.77;99351.88;4975069;28;20234;-64
2023/05/26 11:23:45;;;;;;;11.80;7.03;;;;;;;21.19;52.58;99344.72;4975768;28;20238;-64
2023/05/26 11:26:13;;;;;;;12.30;6.50;;;;;;;21.16;52.15;99345.13;4976952;28;20237;-63
2023/05/26 11:28:45;;;;;;;12.23;7.20;;;;;;;21.21;51.84;99344.50;4977612;28;20250;-63
2023/05/26 11:31:13;;;;;;;11.83;7.00;;;;;;;21.45;51.00;99348.41;4978423;28;20786;-63
2023/05/26 11:33:41;;;;;;;13.33;7.27;;;;;;;21.46;51.21;99335.94;4979571;28;20231;-63
2023/05/26 11:36:09;;;;;;;9.70;6.00;;;;;;;21.64;51.39;99341.47;4977898;28;20323;-63
2023/05/26 11:38:36;;;;;;;12.20;7.00;;;;;;;21.38;50.18;99344.94;4975812;28;20242;-63
2023/05/26 11:41:04;;;;;;;12.17;7.00;;;;;;;21.75;50.78;99339.22;4981294;28;20665;-64